createdAt,value
2022-10-09T00:01:13.142Z,100380.31
2022-10-09T00:03:43.673Z,100382.06
2022-10-09T00:06:13.267Z,100381.25
2022-10-09T00:08:41.066Z,100374.16
2022-10-09T00:11:10.556Z,100376.00
2022-10-09T00:13:38.500Z,100381.97
2022-10-09T00:16:08.525Z,100379.34
2022-10-09T00:18:36.283Z,100368.94
2022-10-09T00:21:05.093Z,100372.34
2022-10-09T00:23:32.937Z,100368.03
2022-10-09T00:26:01.857Z,100370.62
2022-10-09T00:28:33.393Z,100361.09
2022-10-09T00:31:05.808Z,100361.88
2022-10-09T00:33:34.180Z,100361.06
2022-10-09T00:36:05.659Z,100370.78
2022-10-09T00:38:33.860Z,100352.31
2022-10-09T00:41:01.197Z,100349.72
2022-10-09T00:43:42.462Z,100350.69
2022-10-09T00:46:39.208Z,100345.47
2022-10-09T00:49:26.068Z,100348.09
2022-10-09T00:51:55.460Z,100335.97
2022-10-09T00:54:24.876Z,100339.50
2022-10-09T00:56:52.615Z,100338.66
2022-10-09T00:59:20.599Z,100327.94
2022-10-09T01:01:47.981Z,100338.50
2022-10-09T01:04:15.617Z,100331.53
2022-10-09T01:06:56.675Z,100329.66
2022-10-09T01:09:30.268Z,100321.78
2022-10-09T01:12:08.340Z,100323.47
2022-10-09T01:14:50.973Z,100327.88
2022-10-09T01:17:43.774Z,100325.19
2022-10-09T01:20:34.378Z,100327.03
2022-10-09T01:23:16.117Z,100334.09
2022-10-09T01:25:57.512Z,100333.22
2022-10-09T01:28:28.999Z,100335.91
2022-10-09T01:31:02.787Z,100328.97
2022-10-09T01:33:31.454Z,100335.09
2022-10-09T01:35:59.945Z,100329.88
2022-10-09T01:38:28.333Z,100330.56
2022-10-09T01:40:56.180Z,100333.31
2022-10-09T01:43:23.492Z,100334.84
2022-10-09T01:45:50.824Z,100342.59
2022-10-09T01:48:23.556Z,100337.22
2022-10-09T01:50:56.266Z,100341.69
2022-10-09T01:53:24.798Z,100340.12
2022-10-09T01:56:11.942Z,100334.00
2022-10-09T01:58:53.287Z,100330.22
2022-10-09T02:01:33.033Z,100339.00
2022-10-09T02:04:03.001Z,100343.59
2022-10-09T02:06:31.255Z,100337.53
2022-10-09T02:08:59.348Z,100343.56
2022-10-09T02:11:29.699Z,100348.06
2022-10-09T02:13:57.010Z,100345.34
2022-10-09T02:16:37.721Z,100354.03
2022-10-09T02:19:24.252Z,100356.44
2022-10-09T02:22:02.663Z,100359.78
2022-10-09T02:24:30.295Z,100356.28
2022-10-09T02:26:58.056Z,100360.88
2022-10-09T02:29:25.842Z,100363.50
2022-10-09T02:31:53.510Z,100360.75
2022-10-09T02:34:21.080Z,100359.81
2022-10-09T02:36:48.552Z,100368.50
2022-10-09T02:39:16.356Z,100364.16
2022-10-09T02:41:43.758Z,100371.16
2022-10-09T02:44:11.049Z,100371.84
2022-10-09T02:46:38.791Z,100385.81
2022-10-09T02:49:06.851Z,100381.25
2022-10-09T02:51:34.233Z,100383.94
2022-10-09T02:54:01.885Z,100382.97
2022-10-09T02:56:29.502Z,100394.38
2022-10-09T02:58:57.139Z,100395.28
2022-10-09T03:01:24.865Z,100399.75
2022-10-09T03:03:52.249Z,100392.50
2022-10-09T03:06:24.696Z,100399.47
2022-10-09T03:08:53.448Z,100407.41
2022-10-09T03:11:22.171Z,100405.72
2022-10-09T03:13:49.520Z,100396.22
2022-10-09T03:16:22.122Z,100390.75
2022-10-09T03:18:50.194Z,100396.25
2022-10-09T03:21:20.027Z,100395.16
2022-10-09T03:23:47.615Z,100406.66
2022-10-09T03:26:17.274Z,100403.16
2022-10-09T03:28:48.013Z,100411.59
2022-10-09T03:31:33.350Z,100416.63
2022-10-09T03:34:04.353Z,100396.72
2022-10-09T03:36:31.660Z,100407.34
2022-10-09T03:38:58.934Z,100409.69
2022-10-09T03:41:26.480Z,100412.66
2022-10-09T03:43:53.810Z,100411.53
2022-10-09T03:46:21.151Z,100407.06
2022-10-09T03:48:48.826Z,100415.00
2022-10-09T03:51:16.100Z,100420.34
2022-10-09T03:53:43.681Z,100427.56
2022-10-09T03:56:11.248Z,100434.38
2022-10-09T03:58:38.595Z,100433.56
2022-10-09T04:01:06.169Z,100438.03
2022-10-09T04:03:33.770Z,100436.16
2022-10-09T04:06:01.063Z,100432.88
2022-10-09T04:08:28.394Z,100435.72
2022-10-09T04:10:59.672Z,100433.78
2022-10-09T04:13:27.487Z,100430.16
2022-10-09T04:15:55.274Z,100418.66
2022-10-09T04:18:23.225Z,100428.47
2022-10-09T04:20:51.500Z,100428.41
2022-10-09T04:23:19.868Z,100423.81
2022-10-09T04:25:47.519Z,100440.63
2022-10-09T04:28:14.879Z,100423.84
2022-10-09T04:30:42.197Z,100434.31
2022-10-09T04:33:12.947Z,100440.34
2022-10-09T04:35:44.656Z,100446.44
2022-10-09T04:38:12.457Z,100455.16
2022-10-09T04:40:40.563Z,100458.63
2022-10-09T04:43:07.885Z,100443.78
2022-10-09T04:45:40.039Z,100465.81
2022-10-09T04:48:07.455Z,100478.88
2022-10-09T04:50:38.790Z,100479.78
2022-10-09T04:53:06.093Z,100503.69
2022-10-09T04:55:33.487Z,100505.41
2022-10-09T04:58:01.033Z,100505.09
2022-10-09T05:00:28.344Z,100507.87
2022-10-09T05:02:55.627Z,100502.34
2022-10-09T05:05:23.201Z,100501.28
2022-10-09T05:07:50.659Z,100495.25
2022-10-09T05:10:17.966Z,100497.81
2022-10-09T05:12:45.722Z,100488.94
2022-10-09T05:15:13.240Z,100497.50
2022-10-09T05:17:40.602Z,100509.75
2022-10-09T05:20:08.584Z,100489.62
2022-10-09T05:22:35.924Z,100494.87
2022-10-09T05:25:03.413Z,100503.56
2022-10-09T05:27:30.961Z,100501.81
2022-10-09T05:29:58.272Z,100496.72
2022-10-09T05:32:25.564Z,100501.81
2022-10-09T05:34:53.112Z,100497.59
2022-10-09T05:37:20.407Z,100501.41
2022-10-09T05:39:47.786Z,100508.25
2022-10-09T05:42:15.408Z,100503.97
2022-10-09T05:44:42.713Z,100508.41
2022-10-09T05:47:10.007Z,100516.09
2022-10-09T05:49:37.702Z,100520.56
2022-10-09T05:52:04.980Z,100520.34
2022-10-09T05:54:32.553Z,100508.25
2022-10-09T05:57:00.171Z,100515.13
2022-10-09T05:59:27.482Z,100505.50
2022-10-09T06:01:54.853Z,100515.41
2022-10-09T06:04:24.069Z,100507.56
2022-10-09T06:06:51.535Z,100515.22
2022-10-09T06:09:23.000Z,100516.91
2022-10-09T06:11:51.577Z,100512.72
2022-10-09T06:14:21.896Z,100518.09
2022-10-09T06:16:49.744Z,100519.03
2022-10-09T06:19:19.232Z,100534.59
2022-10-09T06:21:47.189Z,100531.00
2022-10-09T06:24:19.063Z,100543.47
2022-10-09T06:26:46.610Z,100545.16
2022-10-09T06:29:13.901Z,100558.91
2022-10-09T06:31:41.242Z,100553.22
2022-10-09T06:34:09.791Z,100556.31
2022-10-09T06:36:37.097Z,100553.00
2022-10-09T06:39:07.103Z,100562.03
2022-10-09T06:41:35.042Z,100564.88
2022-10-09T06:44:16.421Z,100563.72
2022-10-09T06:46:45.516Z,100565.47
2022-10-09T06:49:13.066Z,100565.94
2022-10-09T06:51:40.620Z,100573.66
2022-10-09T06:54:13.597Z,100565.28
2022-10-09T06:56:40.987Z,100571.81
2022-10-09T06:59:09.712Z,100570.53
2022-10-09T07:01:37.092Z,100571.66
2022-10-09T07:04:10.747Z,100572.25
2022-10-09T07:06:40.674Z,100576.50
2022-10-09T07:09:10.540Z,100578.75
2022-10-09T07:11:40.845Z,100569.59
2022-10-09T07:14:09.351Z,100583.00
2022-10-09T07:16:38.832Z,100580.91
2022-10-09T07:19:08.375Z,100585.84
2022-10-09T07:21:35.898Z,100581.78
2022-10-09T07:24:03.989Z,100591.25
2022-10-09T07:26:34.032Z,100591.59
2022-10-09T07:29:01.946Z,100593.56
2022-10-09T07:31:29.420Z,100591.19
2022-10-09T07:33:57.828Z,100588.88
2022-10-09T07:36:25.634Z,100588.38
2022-10-09T07:38:54.789Z,100595.34
2022-10-09T07:41:24.075Z,100598.66
2022-10-09T07:43:51.424Z,100593.03
2022-10-09T07:46:20.506Z,100596.75
2022-10-09T07:48:48.514Z,100590.06
2022-10-09T07:51:23.985Z,100597.09
2022-10-09T07:53:52.429Z,100597.47
2022-10-09T07:56:22.266Z,100594.47
2022-10-09T07:58:54.691Z,100587.69
2022-10-09T08:01:23.021Z,100584.22
2022-10-09T08:03:51.001Z,100579.81
2022-10-09T08:06:18.846Z,100593.78
2022-10-09T08:08:50.796Z,100585.91
2022-10-09T08:11:19.340Z,100585.97
2022-10-09T08:13:47.753Z,100594.28
2022-10-09T08:16:16.009Z,100596.03
2022-10-09T08:18:43.732Z,100591.69
2022-10-09T08:21:13.836Z,100589.00
2022-10-09T08:23:41.711Z,100581.59
2022-10-09T08:26:17.530Z,100593.66
2022-10-09T08:28:49.652Z,100589.13
2022-10-09T08:31:17.574Z,100592.84
2022-10-09T08:33:44.969Z,100585.72
2022-10-09T08:36:16.856Z,100595.03
2022-10-09T08:38:47.686Z,100591.16
2022-10-09T08:41:40.073Z,100600.94
2022-10-09T08:44:27.009Z,100599.34
2022-10-09T08:46:59.551Z,100601.88
2022-10-09T08:49:50.725Z,100601.22
2022-10-09T08:52:50.056Z,100604.44
2022-10-09T08:55:26.286Z,100607.31
2022-10-09T08:57:55.720Z,100612.00
2022-10-09T09:00:27.128Z,100609.97
2022-10-09T09:03:20.050Z,100620.19
2022-10-09T09:06:10.017Z,100610.72
2022-10-09T09:09:05.399Z,100623.13
2022-10-09T09:11:51.521Z,100616.28
2022-10-09T09:14:34.990Z,100622.53
2022-10-09T09:17:36.682Z,100621.34
2022-10-09T09:20:03.830Z,100622.50
2022-10-09T09:22:32.591Z,100624.34
2022-10-09T09:25:00.976Z,100629.34
2022-10-09T09:27:32.779Z,100625.22
2022-10-09T09:30:12.299Z,100623.56
2022-10-09T09:32:50.359Z,100620.16
2022-10-09T09:35:32.931Z,100627.28
2022-10-09T09:38:00.929Z,100631.47
2022-10-09T09:40:38.143Z,100630.31
2022-10-09T09:43:15.172Z,100632.50
2022-10-09T09:45:43.814Z,100629.03
2022-10-09T09:48:36.912Z,100639.41
2022-10-09T09:51:27.398Z,100635.72
2022-10-09T09:54:00.209Z,100638.88
2022-10-09T09:56:59.735Z,100624.84
2022-10-09T09:59:30.075Z,100632.06
2022-10-09T10:02:28.512Z,100635.56
2022-10-09T10:05:01.684Z,100640.75
2022-10-09T10:07:36.595Z,100638.84
2022-10-09T10:10:05.491Z,100642.09
2022-10-09T10:12:32.969Z,100642.44
2022-10-09T10:15:00.290Z,100646.63
2022-10-09T10:17:32.405Z,100648.53
2022-10-09T10:20:00.399Z,100646.22
2022-10-09T10:22:36.079Z,100640.06
2022-10-09T10:25:03.881Z,100634.38
2022-10-09T10:27:40.970Z,100639.38
2022-10-09T10:30:16.994Z,100648.59
2022-10-09T10:32:59.540Z,100639.78
2022-10-09T10:35:27.809Z,100641.63
2022-10-09T10:38:06.209Z,100639.81
2022-10-09T10:40:36.540Z,100647.84
2022-10-09T10:43:10.470Z,100635.34
2022-10-09T10:45:50.169Z,100645.50
2022-10-09T10:48:33.411Z,100645.69
2022-10-09T10:51:16.112Z,100642.41
2022-10-09T10:54:03.096Z,100640.84
2022-10-09T10:56:38.024Z,100632.78
2022-10-09T10:59:30.240Z,100640.19
2022-10-09T11:02:09.847Z,100633.22
2022-10-09T11:04:55.886Z,100638.62
2022-10-09T11:07:40.352Z,100633.37
2022-10-09T11:10:40.320Z,100626.94
2022-10-09T11:13:25.277Z,100626.34
2022-10-09T11:15:59.912Z,100631.22
2022-10-09T11:18:45.886Z,100633.91
2022-10-09T11:21:40.877Z,100623.97
2022-10-09T11:24:39.610Z,100626.00
2022-10-09T11:27:22.824Z,100626.13
2022-10-09T11:30:00.675Z,100622.16
2022-10-09T11:32:33.202Z,100621.34
2022-10-09T11:35:33.398Z,100623.41
2022-10-09T11:38:09.994Z,100623.19
2022-10-09T11:40:40.489Z,100622.53
2022-10-09T11:43:33.518Z,100618.44
2022-10-09T11:46:22.047Z,100617.25
2022-10-09T11:49:01.625Z,100612.19
2022-10-09T11:51:35.047Z,100610.06
2022-10-09T11:54:03.852Z,100606.75
2022-10-09T11:56:32.180Z,100604.25
2022-10-09T11:59:01.141Z,100604.78
2022-10-09T12:01:32.763Z,100602.69
2022-10-09T12:04:01.422Z,100596.69
2022-10-09T12:06:29.394Z,100598.88
2022-10-09T12:09:00.088Z,100597.28
2022-10-09T12:11:28.216Z,100595.06
2022-10-09T12:13:58.082Z,100592.06
2022-10-09T12:16:43.742Z,100593.84
2022-10-09T12:19:18.183Z,100593.22
2022-10-09T12:22:17.932Z,100589.31
2022-10-09T12:24:48.431Z,100592.66
2022-10-09T12:27:22.018Z,100589.59
2022-10-09T12:30:11.479Z,100602.00
2022-10-09T12:32:42.325Z,100594.03
2022-10-09T12:35:37.229Z,100591.06
2022-10-09T12:38:27.812Z,100587.97
2022-10-09T12:40:59.713Z,100584.09
2022-10-09T12:43:27.229Z,100583.56
2022-10-09T12:45:54.914Z,100583.75
2022-10-09T12:48:25.852Z,100581.28
2022-10-09T12:50:53.564Z,100572.87
2022-10-09T12:53:26.708Z,100579.03
2022-10-09T12:56:00.515Z,100571.03
2022-10-09T12:58:33.303Z,100576.16
2022-10-09T13:01:02.886Z,100574.12
2022-10-09T13:03:42.930Z,100569.84
2022-10-09T13:06:16.642Z,100562.69
2022-10-09T13:08:45.485Z,100562.56
2022-10-09T13:11:24.675Z,100563.59
2022-10-09T13:13:54.115Z,100549.06
2022-10-09T13:16:22.679Z,100555.75
2022-10-09T13:19:01.800Z,100549.13
2022-10-09T13:21:35.244Z,100551.47
2022-10-09T13:24:10.737Z,100549.88
2022-10-09T13:26:39.294Z,100541.97
2022-10-09T13:29:07.675Z,100554.63
2022-10-09T13:31:36.614Z,100551.25
2022-10-09T13:34:12.630Z,100554.25
2022-10-09T13:36:40.728Z,100555.44
2022-10-09T13:39:14.444Z,100549.06
2022-10-09T13:41:43.077Z,100553.69
2022-10-09T13:44:10.894Z,100558.22
2022-10-09T13:46:38.207Z,100551.44
2022-10-09T13:49:05.527Z,100548.94
2022-10-09T13:51:33.178Z,100548.03
2022-10-09T13:54:00.820Z,100542.66
2022-10-09T13:56:29.000Z,100547.59
2022-10-09T13:58:56.663Z,100548.41
2022-10-09T14:01:24.031Z,100547.09
2022-10-09T14:03:52.413Z,100543.66
2022-10-09T14:06:22.285Z,100545.78
2022-10-09T14:08:50.068Z,100538.13
2022-10-09T14:11:17.689Z,100546.31
2022-10-09T14:13:45.212Z,100546.09
2022-10-09T14:16:12.563Z,100543.41
2022-10-09T14:18:40.187Z,100546.06
2022-10-09T14:21:14.662Z,100551.56
2022-10-09T14:23:42.897Z,100539.81
2022-10-09T14:26:10.222Z,100534.50
2022-10-09T14:28:37.832Z,100546.63
2022-10-09T14:31:08.644Z,100531.34
2022-10-09T14:33:36.194Z,100545.41
2022-10-09T14:36:12.795Z,100539.69
2022-10-09T14:38:41.561Z,100540.75
2022-10-09T14:41:09.197Z,100542.13
2022-10-09T14:43:36.700Z,100540.75
2022-10-09T14:46:06.564Z,100550.25
2022-10-09T14:48:34.648Z,100540.84
2022-10-09T14:51:06.151Z,100547.06
2022-10-09T14:53:33.861Z,100541.75
2022-10-09T14:56:05.936Z,100551.81
2022-10-09T14:58:35.141Z,100548.81
2022-10-09T15:01:02.967Z,100555.28
2022-10-09T15:03:31.025Z,100550.78
2022-10-09T15:05:59.680Z,100555.87
2022-10-09T15:08:29.613Z,100556.84
2022-10-09T15:10:57.301Z,100561.44
2022-10-09T15:13:24.908Z,100556.16
2022-10-09T15:15:52.303Z,100551.91
2022-10-09T15:18:19.855Z,100558.44
2022-10-09T15:20:47.448Z,100555.84
2022-10-09T15:23:14.753Z,100567.78
2022-10-09T15:25:50.877Z,100565.34
2022-10-09T15:28:19.148Z,100571.28
2022-10-09T15:30:47.896Z,100568.53
2022-10-09T15:33:15.214Z,100568.03
2022-10-09T15:35:43.067Z,100562.31
2022-10-09T15:38:16.193Z,100564.06
2022-10-09T15:40:46.167Z,100578.34
2022-10-09T15:43:15.255Z,100561.25
2022-10-09T15:45:42.869Z,100565.91
2022-10-09T15:48:18.795Z,100575.75
2022-10-09T15:50:50.334Z,100572.37
2022-10-09T15:53:20.136Z,100572.81
2022-10-09T15:55:49.185Z,100571.28
2022-10-09T15:58:18.209Z,100574.62
2022-10-09T16:00:48.108Z,100576.84
2022-10-09T16:03:17.768Z,100572.59
2022-10-09T16:05:50.887Z,100573.03
2022-10-09T16:08:19.116Z,100576.75
2022-10-09T16:10:49.372Z,100582.41
2022-10-09T16:13:16.918Z,100588.00
2022-10-09T16:15:47.045Z,100590.00
2022-10-09T16:18:16.384Z,100585.78
2022-10-09T16:20:44.087Z,100587.88
2022-10-09T16:23:11.496Z,100591.47
2022-10-09T16:25:39.725Z,100600.31
2022-10-09T16:28:09.341Z,100603.22
2022-10-09T16:30:43.784Z,100606.09
2022-10-09T16:33:12.823Z,100608.03
2022-10-09T16:35:40.345Z,100612.56
2022-10-09T16:38:07.711Z,100622.94
2022-10-09T16:41:00.914Z,100632.50
2022-10-09T16:43:22.616Z,100623.31
2022-10-09T16:45:50.182Z,100626.13
2022-10-09T16:48:17.472Z,100628.62
2022-10-09T16:50:44.829Z,100631.59
2022-10-09T16:53:12.484Z,100630.19
2022-10-09T16:55:39.811Z,100637.16
2022-10-09T16:58:08.135Z,100639.50
2022-10-09T17:00:35.880Z,100637.16
2022-10-09T17:03:03.275Z,100638.13
2022-10-09T17:05:30.700Z,100638.84
2022-10-09T17:07:58.317Z,100647.16
2022-10-09T17:10:25.879Z,100648.09
2022-10-09T17:12:53.192Z,100650.03
2022-10-09T17:15:20.780Z,100648.38
2022-10-09T17:17:48.421Z,100647.63
2022-10-09T17:20:15.935Z,100652.22
2022-10-09T17:22:43.550Z,100648.91
2022-10-09T17:25:11.045Z,100651.63
2022-10-09T17:27:38.743Z,100656.19
2022-10-09T17:30:07.057Z,100656.22
2022-10-09T17:32:34.372Z,100660.72
2022-10-09T17:35:01.690Z,100662.66
2022-10-09T17:37:30.351Z,100665.31
2022-10-09T17:39:57.681Z,100667.25
2022-10-09T17:42:25.213Z,100672.78
2022-10-09T17:44:52.804Z,100671.78
2022-10-09T17:47:20.179Z,100678.03
2022-10-09T17:49:47.476Z,100679.69
2022-10-09T17:52:15.150Z,100683.16
2022-10-09T17:54:42.488Z,100679.00
2022-10-09T17:57:12.453Z,100679.09
2022-10-09T17:59:40.141Z,100673.03
2022-10-09T18:02:07.648Z,100675.72
2022-10-09T18:04:35.227Z,100682.09
2022-10-09T18:07:02.734Z,100688.41
2022-10-09T18:09:30.100Z,100683.91
2022-10-09T18:11:57.662Z,100683.19
2022-10-09T18:14:24.979Z,100681.59
2022-10-09T18:16:53.644Z,100682.28
2022-10-09T18:19:21.529Z,100679.88
2022-10-09T18:21:50.078Z,100690.28
2022-10-09T18:24:17.849Z,100683.31
2022-10-09T18:26:45.477Z,100694.63
2022-10-09T18:29:12.825Z,100685.13
2022-10-09T18:31:40.753Z,100692.03
2022-10-09T18:34:09.763Z,100686.00
2022-10-09T18:36:37.114Z,100692.28
2022-10-09T18:39:07.340Z,100701.72
2022-10-09T18:41:35.950Z,100701.87
2022-10-09T18:44:03.933Z,100714.34
2022-10-09T18:46:36.260Z,100713.31
2022-10-09T18:49:09.193Z,100712.59
2022-10-09T18:51:39.873Z,100717.84
2022-10-09T18:54:08.485Z,100718.84
2022-10-09T18:56:36.439Z,100719.63
2022-10-09T18:59:05.767Z,100725.81
2022-10-09T19:01:33.793Z,100724.94
2022-10-09T19:04:01.244Z,100727.50
2022-10-09T19:06:28.640Z,100724.00
2022-10-09T19:08:57.860Z,100726.75
2022-10-09T19:11:25.245Z,100723.19
2022-10-09T19:13:54.108Z,100731.06
2022-10-09T19:16:22.592Z,100736.22
2022-10-09T19:18:53.099Z,100730.03
2022-10-09T19:21:21.198Z,100731.81
2022-10-09T19:23:50.856Z,100738.84
2022-10-09T19:26:18.895Z,100742.37
2022-10-09T19:28:46.527Z,100739.00
2022-10-09T19:31:14.850Z,100744.31
2022-10-09T19:33:43.108Z,100740.72
2022-10-09T19:36:12.990Z,100742.56
2022-10-09T19:38:41.335Z,100747.88
2022-10-09T19:41:11.060Z,100747.03
2022-10-09T19:43:38.752Z,100745.34
2022-10-09T19:46:12.000Z,100761.19
2022-10-09T19:48:40.525Z,100755.00
2022-10-09T19:51:14.343Z,100761.09
2022-10-09T19:53:43.458Z,100765.47
2022-10-09T19:56:15.152Z,100759.22
2022-10-09T19:58:43.411Z,100764.56
2022-10-09T20:01:11.806Z,100771.81
2022-10-09T20:03:40.241Z,100770.03
2022-10-09T20:06:08.929Z,100774.22
2022-10-09T20:08:37.750Z,100774.22
2022-10-09T20:11:06.129Z,100776.88
2022-10-09T20:13:35.065Z,100784.91
2022-10-09T20:16:04.789Z,100792.72
2022-10-09T20:18:32.517Z,100784.84
2022-10-09T20:21:00.386Z,100791.88
2022-10-09T20:23:27.919Z,100789.13
2022-10-09T20:26:03.255Z,100790.13
2022-10-09T20:28:35.414Z,100786.72
2022-10-09T20:31:06.457Z,100785.75
2022-10-09T20:33:34.835Z,100783.97
2022-10-09T20:36:02.693Z,100789.91
2022-10-09T20:38:30.501Z,100782.09
2022-10-09T20:41:08.348Z,100791.03
2022-10-09T20:43:36.382Z,100791.00
2022-10-09T20:46:17.153Z,100784.84
2022-10-09T20:48:45.051Z,100793.75
2022-10-09T20:51:12.915Z,100796.41
2022-10-09T20:53:41.288Z,100799.87
2022-10-09T20:56:11.761Z,100800.72
2022-10-09T20:58:39.950Z,100792.78
2022-10-09T21:01:08.416Z,100792.94
2022-10-09T21:03:37.369Z,100797.41
2022-10-09T21:06:06.613Z,100803.66
2022-10-09T21:08:34.549Z,100800.19
2022-10-09T21:11:05.968Z,100794.81
2022-10-09T21:13:33.340Z,100794.88
2022-10-09T21:16:00.866Z,100800.16
2022-10-09T21:18:28.419Z,100804.59
2022-10-09T21:20:55.727Z,100798.44
2022-10-09T21:23:23.264Z,100805.50
2022-10-09T21:25:52.779Z,100804.66
2022-10-09T21:28:21.136Z,100802.16
2022-10-09T21:30:49.054Z,100806.53
2022-10-09T21:33:17.245Z,100807.34
2022-10-09T21:35:47.490Z,100800.44
2022-10-09T21:38:17.380Z,100797.03
2022-10-09T21:40:45.527Z,100798.75
2022-10-09T21:43:13.361Z,100799.63
2022-10-09T21:45:40.799Z,100795.31
2022-10-09T21:48:08.429Z,100795.47
2022-10-09T21:50:36.696Z,100792.91
2022-10-09T21:53:04.301Z,100786.69
2022-10-09T21:55:31.905Z,100783.25
2022-10-09T21:57:59.308Z,100781.50
2022-10-09T22:00:26.612Z,100784.94
2022-10-09T22:02:54.192Z,100785.06
2022-10-09T22:05:21.539Z,100781.53
2022-10-09T22:07:48.831Z,100777.16
2022-10-09T22:10:16.474Z,100780.69
2022-10-09T22:12:43.759Z,100785.09
2022-10-09T22:15:11.079Z,100782.41
2022-10-09T22:17:38.631Z,100784.22
2022-10-09T22:20:06.148Z,100783.31
2022-10-09T22:22:33.676Z,100781.59
2022-10-09T22:25:01.271Z,100780.72
2022-10-09T22:27:28.602Z,100785.19
2022-10-09T22:29:55.887Z,100792.97
2022-10-09T22:32:23.628Z,100788.66
2022-10-09T22:34:52.004Z,100786.13
2022-10-09T22:37:19.303Z,100785.13
2022-10-09T22:39:46.897Z,100790.50
2022-10-09T22:42:14.181Z,100788.72
2022-10-09T22:44:41.487Z,100788.72
2022-10-09T22:47:09.060Z,100788.78
2022-10-09T22:49:36.329Z,100791.38
2022-10-09T22:52:03.767Z,100795.88
2022-10-09T22:54:31.343Z,100793.25
2022-10-09T22:56:58.647Z,100799.50
2022-10-09T22:59:25.976Z,100805.69
2022-10-09T23:01:56.929Z,100801.31
2022-10-09T23:04:24.877Z,100806.50
2022-10-09T23:06:54.612Z,100805.66
2022-10-09T23:09:26.027Z,100809.16
2022-10-09T23:11:53.675Z,100804.75
2022-10-09T23:14:21.024Z,100804.75
2022-10-09T23:16:48.918Z,100812.66
2022-10-09T23:19:16.918Z,100809.19
2022-10-09T23:21:45.888Z,100818.78
2022-10-09T23:24:17.326Z,100810.91
2022-10-09T23:26:46.258Z,100808.28
2022-10-09T23:29:16.251Z,100815.25
2022-10-09T23:31:44.399Z,100811.78
2022-10-09T23:34:12.088Z,100811.81
2022-10-09T23:36:39.662Z,100816.16
2022-10-09T23:39:07.463Z,100819.66
2022-10-09T23:41:35.093Z,100812.72
2022-10-09T23:44:02.694Z,100812.69
2022-10-09T23:46:33.812Z,100814.44
2022-10-09T23:49:01.167Z,100810.09
2022-10-09T23:51:29.227Z,100808.34
2022-10-09T23:53:56.993Z,100813.59
2022-10-09T23:56:27.947Z,100817.13
2022-10-09T23:58:56.449Z,100825.84
